Time;durP1;ratioP1;P1;durP2;ratioP2;P2;SDS_P1;SDS_P2;PMS_P1;PMS_P2;Temp;Humidity;BMP_temperature;BMP_pressure;BME280_temperature;BME280_humidity;BME280_pressure;Samples;Min_cycle;Max_cycle;Signal;HPM_P1;HPM_P2
2022/02/13 00:01:37;;;;;;;;;31.25;29.75;;;;;;;;5058330;28;45402;-81
2022/02/13 00:04:02;;;;;;;;;25.50;24.25;;;;;;;;5057930;28;45404;-81
2022/02/13 00:06:28;;;;;;;;;25.75;23.00;;;;;;;;5055822;28;46968;-81
2022/02/13 00:08:56;;;;;;;;;31.50;29.50;;;;;;;;5056864;28;45398;-82
2022/02/13 00:11:21;;;;;;;;;26.50;24.50;;;;;;;;5056474;28;45352;-81
2022/02/13 00:13:47;;;;;;;;;27.75;24.50;;;;;;;;5056416;28;45367;-81
2022/02/13 00:16:12;;;;;;;;;28.50;25.75;;;;;;;;5056777;28;45482;-80
2022/02/13 00:18:38;;;;;;;;;22.75;21.00;;;;;;;;5056121;28;45392;-82
2022/02/13 00:21:03;;;;;;;;;28.50;24.00;;;;;;;;5055818;28;45288;-81
2022/02/13 00:23:28;;;;;;;;;27.00;23.00;;;;;;;;5055944;28;45454;-81
2022/02/13 00:25:53;;;;;;;;;30.00;28.75;;;;;;;;5055492;28;46031;-81
2022/02/13 00:28:19;;;;;;;;;25.50;25.50;;;;;;;;5056037;28;45342;-82
2022/02/13 00:30:46;;;;;;;;;25.50;25.25;;;;;;;;5056389;28;45468;-80
2022/02/13 00:33:13;;;;;;;;;25.75;21.25;;;;;;;;5055476;28;45622;-82
2022/02/13 00:35:38;;;;;;;;;28.75;24.75;;;;;;;;5055311;28;46221;-79
2022/02/13 00:38:03;;;;;;;;;29.25;27.50;;;;;;;;5055901;28;45559;-80
2022/02/13 00:40:29;;;;;;;;;22.50;20.50;;;;;;;;5056096;28;45284;-79
2022/02/13 00:42:54;;;;;;;;;9.25;8.50;;;;;;;;5056553;28;45468;-80
2022/02/13 00:45:19;;;;;;;;;29.25;23.75;;;;;;;;5055478;28;46188;-80
2022/02/13 00:47:44;;;;;;;;;25.25;24.00;;;;;;;;5055786;28;45411;-80
2022/02/13 00:50:10;;;;;;;;;31.25;25.50;;;;;;;;5055570;28;45486;-80
2022/02/13 00:52:35;;;;;;;;;27.00;25.00;;;;;;;;5055723;28;45440;-80
2022/02/13 00:55:00;;;;;;;;;26.75;24.00;;;;;;;;5056394;28;45747;-80
2022/02/13 00:57:27;;;;;;;;;25.50;25.50;;;;;;;;5055102;28;45342;-80
2022/02/13 00:59:52;;;;;;;;;19.25;17.25;;;;;;;;5055453;28;45436;-80
2022/02/13 01:02:17;;;;;;;;;27.75;26.00;;;;;;;;5056000;28;45475;-80
2022/02/13 01:04:42;;;;;;;;;28.50;25.25;;;;;;;;5055397;28;45546;-80
2022/02/13 01:07:07;;;;;;;;;25.00;23.25;;;;;;;;5056483;28;45335;-80
2022/02/13 01:09:33;;;;;;;;;30.00;21.75;;;;;;;;5055832;28;45320;-80
2022/02/13 01:11:58;;;;;;;;;32.50;27.75;;;;;;;;5057111;28;45454;-80
2022/02/13 01:14:23;;;;;;;;;28.50;25.75;;;;;;;;5056967;28;46194;-80
2022/02/13 01:16:48;;;;;;;;;27.25;24.50;;;;;;;;5040149;28;45319;-80
2022/02/13 01:19:13;;;;;;;;;28.00;27.25;;;;;;;;5037495;28;45643;-80
2022/02/13 01:21:39;;;;;;;;;25.50;22.00;;;;;;;;5057023;28;45501;-80
2022/02/13 01:24:04;;;;;;;;;24.50;24.25;;;;;;;;5056350;28;46393;-80
2022/02/13 01:26:29;;;;;;;;;24.75;21.25;;;;;;;;5056544;28;45560;-81
2022/02/13 01:28:55;;;;;;;;;21.50;21.25;;;;;;;;5056875;28;45467;-81
2022/02/13 01:31:20;;;;;;;;;23.00;20.25;;;;;;;;5055503;28;45359;-81
2022/02/13 01:33:45;;;;;;;;;27.25;23.75;;;;;;;;5056620;28;45345;-81
2022/02/13 01:36:11;;;;;;;;;26.00;15.00;;;;;;;;5056823;28;45327;-81
2022/02/13 01:38:36;;;;;;;;;28.50;24.50;;;;;;;;5056605;28;45453;-80
2022/02/13 01:41:02;;;;;;;;;21.00;17.50;;;;;;;;5038914;28;45496;-80
2022/02/13 01:43:27;;;;;;;;;25.75;21.75;;;;;;;;5056106;28;47186;-80
2022/02/13 01:45:52;;;;;;;;;18.50;16.25;;;;;;;;5055664;28;45364;-80
2022/02/13 01:48:17;;;;;;;;;28.00;23.75;;;;;;;;5056196;27;45336;-80
2022/02/13 01:50:43;;;;;;;;;22.50;19.25;;;;;;;;5056566;28;45537;-80
2022/02/13 01:53:09;;;;;;;;;20.75;20.25;;;;;;;;5056482;28;45420;-80
2022/02/13 01:55:35;;;;;;;;;25.50;24.50;;;;;;;;5056292;28;45482;-80
2022/02/13 01:58:00;;;;;;;;;19.00;16.00;;;;;;;;5055855;28;45292;-80
2022/02/13 02:00:26;;;;;;;;;27.00;21.25;;;;;;;;5056544;28;45321;-80
2022/02/13 02:02:51;;;;;;;;;20.00;18.75;;;;;;;;5055578;28;46092;-80
2022/02/13 02:05:17;;;;;;;;;27.75;23.75;;;;;;;;5056274;28;45471;-80
2022/02/13 02:07:42;;;;;;;;;23.75;22.00;;;;;;;;5057344;28;45392;-80
2022/02/13 02:10:07;;;;;;;;;23.25;22.00;;;;;;;;5056314;28;45530;-80
2022/02/13 02:12:35;;;;;;;;;28.00;22.25;;;;;;;;5056666;28;47112;-81
2022/02/13 02:15:00;;;;;;;;;23.75;22.50;;;;;;;;5056048;28;45394;-80
2022/02/13 02:17:25;;;;;;;;;23.25;21.75;;;;;;;;5055668;28;45381;-81
2022/02/13 02:19:50;;;;;;;;;29.75;21.25;;;;;;;;5056178;28;45422;-80
2022/02/13 02:22:16;;;;;;;;;30.75;26.75;;;;;;;;5055299;28;46437;-80
2022/02/13 02:24:41;;;;;;;;;20.00;19.50;;;;;;;;5056048;28;45411;-81
2022/02/13 02:27:07;;;;;;;;;23.75;19.75;;;;;;;;5057842;28;45447;-81
2022/02/13 02:29:33;;;;;;;;;25.50;22.75;;;;;;;;5055812;28;45537;-81
2022/02/13 02:31:58;;;;;;;;;21.50;17.50;;;;;;;;5055362;28;46510;-80
2022/02/13 02:34:24;;;;;;;;;26.00;21.25;;;;;;;;5055130;28;45321;-79
2022/02/13 02:36:49;;;;;;;;;25.75;21.25;;;;;;;;5055595;28;45237;-80
2022/02/13 02:39:15;;;;;;;;;23.50;20.00;;;;;;;;5054061;27;45510;-80
2022/02/13 02:41:40;;;;;;;;;23.00;19.25;;;;;;;;5041645;28;46986;-80
2022/02/13 02:44:05;;;;;;;;;22.25;19.75;;;;;;;;5055881;28;45430;-80
2022/02/13 02:46:31;;;;;;;;;23.75;20.50;;;;;;;;5055453;28;45502;-80
2022/02/13 02:48:57;;;;;;;;;23.75;20.00;;;;;;;;5055243;28;45785;-80
2022/02/13 02:51:22;;;;;;;;;26.50;22.25;;;;;;;;5055667;28;47195;-80
2022/02/13 02:53:47;;;;;;;;;24.50;20.25;;;;;;;;5060010;28;45547;-81
2022/02/13 02:56:13;;;;;;;;;21.25;19.00;;;;;;;;5070290;28;45406;-80
2022/02/13 02:58:39;;;;;;;;;21.00;19.75;;;;;;;;5063195;28;45554;-81
2022/02/13 03:01:04;;;;;;;;;25.25;23.50;;;;;;;;5056275;28;46138;-80
2022/02/13 03:03:32;;;;;;;;;25.25;23.50;;;;;;;;5058740;28;46105;-81
2022/02/13 03:05:57;;;;;;;;;29.50;22.25;;;;;;;;5058896;28;45387;-81
2022/02/13 03:08:22;;;;;;;;;26.50;21.50;;;;;;;;5059146;28;45285;-81
2022/02/13 03:10:48;;;;;;;;;21.00;19.25;;;;;;;;5059170;28;45432;-80
2022/02/13 03:13:14;;;;;;;;;12.50;11.75;;;;;;;;5059728;28;45303;-80
2022/02/13 03:15:39;;;;;;;;;23.50;21.75;;;;;;;;5062412;28;45560;-79
2022/02/13 03:18:05;;;;;;;;;23.00;23.00;;;;;;;;5060039;28;45376;-80
2022/02/13 03:20:30;;;;;;;;;18.25;16.00;;;;;;;;5058758;28;46219;-80
2022/02/13 03:22:55;;;;;;;;;23.25;20.25;;;;;;;;5059240;28;45321;-81
2022/02/13 03:25:21;;;;;;;;;22.75;22.25;;;;;;;;5058177;28;45403;-79
2022/02/13 03:27:46;;;;;;;;;22.25;20.25;;;;;;;;5058957;28;45493;-80
2022/02/13 03:30:11;;;;;;;;;19.75;19.75;;;;;;;;5059933;28;47096;-80
2022/02/13 03:32:37;;;;;;;;;23.25;22.25;;;;;;;;5057533;28;45397;-79
2022/02/13 03:35:02;;;;;;;;;23.75;18.25;;;;;;;;5058855;28;45338;-80
2022/02/13 03:37:27;;;;;;;;;24.50;22.25;;;;;;;;5058830;28;45260;-81
2022/02/13 03:39:53;;;;;;;;;22.50;20.25;;;;;;;;5055163;28;45536;-80
2022/02/13 03:42:18;;;;;;;;;26.75;24.00;;;;;;;;5060078;28;45541;-80
2022/02/13 03:44:43;;;;;;;;;27.00;25.25;;;;;;;;5058193;28;45363;-81
2022/02/13 03:47:09;;;;;;;;;24.50;23.75;;;;;;;;5058597;28;45292;-81
2022/02/13 03:49:34;;;;;;;;;26.50;24.00;;;;;;;;5058334;28;46232;-80
2022/02/13 03:52:00;;;;;;;;;31.00;24.75;;;;;;;;5057315;28;45276;-80
2022/02/13 03:54:25;;;;;;;;;26.25;25.00;;;;;;;;5058360;28;45395;-80
2022/02/13 03:56:50;;;;;;;;;25.25;24.50;;;;;;;;5058009;28;45319;-80
2022/02/13 03:59:15;;;;;;;;;28.75;23.50;;;;;;;;5063863;28;45463;-80
2022/02/13 04:01:40;;;;;;;;;28.75;22.50;;;;;;;;5058551;28;45379;-80
2022/02/13 04:04:06;;;;;;;;;20.50;18.25;;;;;;;;5057743;28;45345;-79
2022/02/13 04:06:31;;;;;;;;;30.00;24.25;;;;;;;;5057930;28;45502;-79
2022/02/13 04:08:56;;;;;;;;;23.25;22.00;;;;;;;;5058018;28;45358;-80
2022/02/13 04:11:22;;;;;;;;;28.00;27.50;;;;;;;;5058191;27;45359;-80
2022/02/13 04:13:47;;;;;;;;;26.50;24.25;;;;;;;;5057975;28;45435;-79
2022/02/13 04:16:12;;;;;;;;;24.00;20.00;;;;;;;;5057859;28;45255;-80
2022/02/13 04:18:37;;;;;;;;;22.50;20.50;;;;;;;;5058819;28;46019;-80
2022/02/13 04:21:02;;;;;;;;;25.25;22.00;;;;;;;;5058588;28;45435;-79
2022/02/13 04:23:29;;;;;;;;;29.25;25.50;;;;;;;;5058112;28;45477;-80
2022/02/13 04:25:54;;;;;;;;;25.00;20.50;;;;;;;;5059475;28;45506;-81
2022/02/13 04:28:19;;;;;;;;;29.50;26.25;;;;;;;;5056553;27;46321;-79
2022/02/13 04:30:45;;;;;;;;;20.50;20.50;;;;;;;;5057996;28;45335;-81
2022/02/13 04:33:10;;;;;;;;;31.00;26.50;;;;;;;;5059095;28;45352;-79
2022/02/13 04:35:36;;;;;;;;;25.25;25.25;;;;;;;;5058007;28;45560;-80
2022/02/13 04:38:01;;;;;;;;;30.75;25.25;;;;;;;;5057619;28;46100;-79
2022/02/13 04:40:26;;;;;;;;;27.00;22.50;;;;;;;;5057732;28;45643;-78
2022/02/13 04:42:52;;;;;;;;;24.50;23.00;;;;;;;;5056812;28;45434;-78
2022/02/13 04:45:17;;;;;;;;;28.50;25.75;;;;;;;;5057740;28;45415;-79
2022/02/13 04:47:42;;;;;;;;;32.25;27.75;;;;;;;;5057437;28;46813;-79
2022/02/13 04:50:08;;;;;;;;;28.00;24.50;;;;;;;;5057633;28;45363;-79
2022/02/13 04:52:34;;;;;;;;;23.00;23.00;;;;;;;;5057493;28;45287;-79
2022/02/13 04:54:59;;;;;;;;;24.50;23.00;;;;;;;;5056509;28;45489;-78
2022/02/13 04:57:25;;;;;;;;;27.50;21.00;;;;;;;;5056972;28;46104;-78
2022/02/13 04:59:50;;;;;;;;;23.00;18.75;;;;;;;;5057489;28;45454;-77
2022/02/13 05:02:15;;;;;;;;;27.25;23.50;;;;;;;;5057507;28;45314;-79
2022/02/13 05:04:41;;;;;;;;;23.00;22.00;;;;;;;;5057770;28;45280;-78
2022/02/13 05:07:06;;;;;;;;;27.00;20.00;;;;;;;;5056686;28;46329;-79
2022/02/13 05:09:31;;;;;;;;;26.00;24.50;;;;;;;;5057038;28;45494;-79
2022/02/13 05:11:57;;;;;;;;;21.25;19.00;;;;;;;;5056862;28;45366;-79
2022/02/13 05:14:23;;;;;;;;;25.00;23.25;;;;;;;;5059925;27;45540;-79
2022/02/13 05:16:48;;;;;;;;;27.50;24.50;;;;;;;;5057192;28;46237;-80
2022/02/13 05:19:13;;;;;;;;;25.75;24.00;;;;;;;;5054603;28;45244;-79
2022/02/13 05:21:39;;;;;;;;;28.75;20.50;;;;;;;;5059044;28;45457;-79
2022/02/13 05:24:04;;;;;;;;;24.50;23.75;;;;;;;;5057314;28;45459;-79
2022/02/13 05:26:30;;;;;;;;;25.00;24.00;;;;;;;;5056653;28;46084;-79
2022/02/13 05:28:55;;;;;;;;;23.25;21.25;;;;;;;;5057121;28;45541;-80
2022/02/13 05:31:20;;;;;;;;;20.25;20.25;;;;;;;;5056162;28;45301;-80
2022/02/13 05:33:45;;;;;;;;;29.75;28.50;;;;;;;;5057048;28;45472;-80
2022/02/13 05:36:10;;;;;;;;;27.75;26.00;;;;;;;;5056796;28;46001;-79
2022/02/13 05:38:36;;;;;;;;;24.75;22.00;;;;;;;;5053931;28;45249;-79
2022/02/13 05:41:01;;;;;;;;;29.25;26.25;;;;;;;;5039601;28;45207;-78
2022/02/13 05:43:28;;;;;;;;;22.50;22.50;;;;;;;;5037190;28;45387;-79
2022/02/13 05:45:53;;;;;;;;;24.75;21.00;;;;;;;;5033317;28;47075;-79
2022/02/13 05:48:18;;;;;;;;;35.00;23.50;;;;;;;;5039034;28;45431;-78
2022/02/13 05:50:43;;;;;;;;;26.50;23.00;;;;;;;;5039337;28;45450;-78
2022/02/13 05:53:08;;;;;;;;;22.00;19.25;;;;;;;;5039400;28;45329;-77
2022/02/13 05:55:34;;;;;;;;;26.75;24.00;;;;;;;;5037175;28;46721;-78
2022/02/13 05:57:59;;;;;;;;;30.75;21.75;;;;;;;;5036809;28;45424;-80
2022/02/13 06:00:24;;;;;;;;;21.00;18.25;;;;;;;;5039209;28;45533;-78
2022/02/13 06:02:49;;;;;;;;;29.75;25.25;;;;;;;;5039132;28;45500;-78
2022/02/13 06:05:15;;;;;;;;;21.75;20.25;;;;;;;;5039056;28;45575;-79
2022/02/13 06:07:40;;;;;;;;;22.50;20.25;;;;;;;;5038570;28;45307;-78
2022/02/13 06:10:07;;;;;;;;;25.00;22.50;;;;;;;;5035696;28;45392;-78
2022/02/13 06:12:32;;;;;;;;;22.50;22.00;;;;;;;;5038615;28;45518;-78
2022/02/13 06:14:57;;;;;;;;;24.75;22.75;;;;;;;;5038655;28;47106;-77
2022/02/13 06:17:23;;;;;;;;;31.50;23.25;;;;;;;;5038761;28;49268;-77
2022/02/13 06:19:48;;;;;;;;;21.75;21.75;;;;;;;;5039007;28;45395;-77
2022/02/13 06:22:13;;;;;;;;;23.00;22.25;;;;;;;;5035196;28;45837;-77
2022/02/13 06:24:38;;;;;;;;;26.50;24.75;;;;;;;;5038203;28;46163;-79
2022/02/13 06:27:04;;;;;;;;;25.00;21.25;;;;;;;;5038416;28;47901;-78
2022/02/13 06:29:29;;;;;;;;;27.50;21.00;;;;;;;;5038601;28;45361;-78
2022/02/13 06:31:54;;;;;;;;;15.50;11.00;;;;;;;;5038493;28;45499;-76
2022/02/13 06:34:20;;;;;;;;;18.25;16.25;;;;;;;;5035413;28;45533;-78
2022/02/13 06:36:45;;;;;;;;;24.25;21.50;;;;;;;;5035885;28;45364;-77
2022/02/13 06:39:10;;;;;;;;;24.00;22.00;;;;;;;;5048825;28;45575;-78
2022/02/13 06:41:35;;;;;;;;;17.50;15.00;;;;;;;;5055598;28;45361;-78
2022/02/13 06:44:00;;;;;;;;;25.00;20.25;;;;;;;;5055924;28;45511;-78
2022/02/13 06:46:26;;;;;;;;;17.75;17.75;;;;;;;;5055773;28;47429;-77
2022/02/13 06:48:51;;;;;;;;;22.50;22.50;;;;;;;;5055181;28;45265;-79
2022/02/13 06:51:16;;;;;;;;;16.75;12.50;;;;;;;;5055681;28;45506;-79
2022/02/13 06:53:41;;;;;;;;;19.50;19.50;;;;;;;;5055140;28;46032;-78
2022/02/13 06:56:06;;;;;;;;;22.25;18.50;;;;;;;;5055544;28;45376;-78
2022/02/13 06:58:32;;;;;;;;;19.00;17.50;;;;;;;;5055280;28;45477;-77
2022/02/13 07:00:57;;;;;;;;;29.00;22.00;;;;;;;;5054445;28;45413;-77
2022/02/13 07:03:22;;;;;;;;;22.75;20.25;;;;;;;;5054948;28;45914;-78
2022/02/13 07:05:47;;;;;;;;;23.00;20.50;;;;;;;;5055239;28;45517;-77
2022/02/13 07:08:13;;;;;;;;;23.00;19.50;;;;;;;;5054954;28;45443;-77
2022/02/13 07:10:38;;;;;;;;;19.75;18.75;;;;;;;;5036927;28;45578;-77
2022/02/13 07:13:03;;;;;;;;;27.25;22.00;;;;;;;;5054011;28;46170;-77
2022/02/13 07:15:30;;;;;;;;;29.25;22.25;;;;;;;;5054651;28;45510;-78
2022/02/13 07:17:55;;;;;;;;;23.00;23.00;;;;;;;;5054971;28;45439;-79
2022/02/13 07:20:21;;;;;;;;;18.00;17.00;;;;;;;;5054996;28;45382;-80
2022/02/13 07:22:46;;;;;;;;;25.75;17.75;;;;;;;;5056623;28;46208;-80
2022/02/13 07:25:11;;;;;;;;;23.75;22.75;;;;;;;;5057118;28;44788;-79
2022/02/13 07:27:37;;;;;;;;;22.75;20.50;;;;;;;;5040744;28;45423;-78
2022/02/13 07:30:03;;;;;;;;;24.75;21.50;;;;;;;;5061307;28;45312;-79
2022/02/13 07:32:29;;;;;;;;;26.00;24.00;;;;;;;;5057296;28;46035;-79
2022/02/13 07:34:54;;;;;;;;;26.00;24.00;;;;;;;;5055307;28;45257;-79
2022/02/13 07:37:19;;;;;;;;;24.00;22.25;;;;;;;;5054143;28;45356;-76
2022/02/13 07:39:44;;;;;;;;;27.25;23.00;;;;;;;;5055445;28;45516;-77
2022/02/13 07:42:10;;;;;;;;;23.75;19.00;;;;;;;;5055308;28;45457;-78
2022/02/13 07:44:37;;;;;;;;;23.25;20.50;;;;;;;;5039889;28;45226;-78
2022/02/13 07:47:02;;;;;;;;;23.25;20.50;;;;;;;;5058604;28;45542;-84
2022/02/13 07:49:28;;;;;;;;;21.00;18.00;;;;;;;;5039974;28;45383;-79
2022/02/13 07:51:53;;;;;;;;;21.00;17.75;;;;;;;;5056873;28;46118;-79
2022/02/13 07:54:18;;;;;;;;;23.75;21.00;;;;;;;;5057691;28;47224;-78
2022/02/13 07:56:43;;;;;;;;;19.00;17.00;;;;;;;;5058135;28;45395;-79
2022/02/13 07:59:08;;;;;;;;;22.50;20.50;;;;;;;;5058002;28;45363;-79
2022/02/13 08:01:34;;;;;;;;;26.25;21.00;;;;;;;;5057888;28;46344;-79
2022/02/13 08:03:59;;;;;;;;;27.00;23.50;;;;;;;;5057984;28;45288;-74
2022/02/13 08:06:24;;;;;;;;;25.25;22.50;;;;;;;;5057648;28;45410;-79
2022/02/13 08:08:50;;;;;;;;;24.25;22.00;;;;;;;;5057567;28;45284;-78
2022/02/13 08:11:16;;;;;;;;;25.00;18.00;;;;;;;;5057361;28;46037;-79
2022/02/13 08:13:42;;;;;;;;;12.50;12.50;;;;;;;;5057929;28;45493;-78
2022/02/13 08:16:07;;;;;;;;;20.50;20.00;;;;;;;;5057165;28;45268;-79
2022/02/13 08:18:33;;;;;;;;;20.00;18.75;;;;;;;;5057359;28;45450;-78
2022/02/13 08:20:58;;;;;;;;;25.00;21.50;;;;;;;;5057491;28;45486;-79
2022/02/13 08:23:24;;;;;;;;;23.00;20.50;;;;;;;;5057373;28;45565;-80
2022/02/13 08:25:50;;;;;;;;;23.00;20.50;;;;;;;;5059697;28;45402;-81
2022/02/13 08:28:15;;;;;;;;;26.50;26.00;;;;;;;;5051542;28;45359;-78
2022/02/13 08:30:41;;;;;;;;;22.00;16.75;;;;;;;;5034664;28;46220;-79
2022/02/13 08:33:06;;;;;;;;;19.75;18.50;;;;;;;;5038158;28;45580;-78
2022/02/13 08:35:31;;;;;;;;;22.50;19.25;;;;;;;;5045404;28;45530;-79
2022/02/13 08:37:56;;;;;;;;;20.50;19.50;;;;;;;;5048529;28;45398;-79
2022/02/13 08:40:22;;;;;;;;;22.00;18.75;;;;;;;;5035786;28;45548;-80
2022/02/13 08:42:47;;;;;;;;;23.50;22.25;;;;;;;;5039172;28;45579;-78
2022/02/13 08:45:12;;;;;;;;;24.00;17.75;;;;;;;;5043287;28;46038;-79
2022/02/13 08:47:37;;;;;;;;;22.25;20.75;;;;;;;;5044095;28;45621;-76
2022/02/13 08:50:03;;;;;;;;;27.00;23.75;;;;;;;;5036629;28;45565;-73
2022/02/13 08:52:28;;;;;;;;;28.00;24.25;;;;;;;;5046159;28;45659;-81
2022/02/13 08:54:53;;;;;;;;;26.00;23.25;;;;;;;;5054737;28;45419;-78
2022/02/13 08:57:18;;;;;;;;;24.50;23.50;;;;;;;;5037216;28;45476;-75
2022/02/13 08:59:43;;;;;;;;;24.75;19.00;;;;;;;;5055601;28;45339;-76
2022/02/13 09:02:09;;;;;;;;;25.25;21.25;;;;;;;;5055169;28;45339;-74
2022/02/13 09:04:35;;;;;;;;;24.00;18.50;;;;;;;;5055497;28;45559;-74
2022/02/13 09:07:00;;;;;;;;;20.25;18.75;;;;;;;;5055899;28;45331;-74
2022/02/13 09:09:29;;;;;;;;;21.50;17.75;;;;;;;;5056397;28;46074;-75
2022/02/13 09:11:55;;;;;;;;;21.75;18.25;;;;;;;;5056255;28;45426;-74
2022/02/13 09:14:20;;;;;;;;;22.00;21.00;;;;;;;;5056568;28;45458;-74
2022/02/13 09:16:45;;;;;;;;;29.75;24.75;;;;;;;;5056567;28;45272;-73
2022/02/13 09:19:11;;;;;;;;;28.00;24.25;;;;;;;;5055861;28;46130;-73
2022/02/13 09:21:36;;;;;;;;;24.50;18.00;;;;;;;;5056131;28;45523;-74
2022/02/13 09:24:02;;;;;;;;;19.25;12.50;;;;;;;;5056076;28;45215;-74
2022/02/13 09:26:27;;;;;;;;;32.00;25.75;;;;;;;;5056344;28;45366;-75
2022/02/13 09:28:52;;;;;;;;;20.50;20.25;;;;;;;;5056327;28;45504;-74
2022/02/13 09:31:17;;;;;;;;;30.75;23.50;;;;;;;;5055092;28;45339;-74
2022/02/13 09:33:43;;;;;;;;;19.50;19.50;;;;;;;;5056235;28;45473;-74
2022/02/13 09:36:08;;;;;;;;;19.75;18.50;;;;;;;;5056330;28;45680;-76
2022/02/13 09:38:33;;;;;;;;;23.50;20.25;;;;;;;;5055454;28;46173;-74
2022/02/13 09:40:59;;;;;;;;;16.75;14.25;;;;;;;;5056092;28;45376;-77
2022/02/13 09:43:24;;;;;;;;;21.25;15.25;;;;;;;;5055676;28;45372;-76
2022/02/13 09:45:52;;;;;;;;;25.00;22.00;;;;;;;;5055199;28;45509;-74
2022/02/13 09:48:18;;;;;;;;;24.75;21.50;;;;;;;;5055713;28;45561;-76
2022/02/13 09:50:44;;;;;;;;;22.25;18.75;;;;;;;;5055732;28;45395;-79
2022/02/13 09:53:09;;;;;;;;;17.50;14.25;;;;;;;;5057050;28;45364;-84
2022/02/13 09:55:35;;;;;;;;;22.75;21.75;;;;;;;;5057476;28;45241;-83
2022/02/13 09:58:00;;;;;;;;;24.50;21.50;;;;;;;;5055473;28;47109;-84
2022/02/13 10:00:44;;;;;;;;;24.75;20.75;;;;;;;;5057454;28;45301;-84
2022/02/13 10:03:15;;;;;;;;;21.50;20.50;;;;;;;;5057244;28;45537;-83
2022/02/13 10:05:41;;;;;;;;;25.75;23.00;;;;;;;;5055434;28;45407;-84
2022/02/13 10:08:06;;;;;;;;;24.25;20.25;;;;;;;;5057495;28;46290;-83
2022/02/13 10:10:31;;;;;;;;;20.00;17.50;;;;;;;;5056401;28;45498;-84
2022/02/13 10:12:57;;;;;;;;;20.75;19.00;;;;;;;;5055749;28;45334;-85
2022/02/13 10:15:22;;;;;;;;;14.00;12.50;;;;;;;;5061915;28;45426;-84
2022/02/13 10:17:54;;;;;;;;;25.25;19.50;;;;;;;;5055863;28;46222;-83
2022/02/13 10:20:30;;;;;;;;;21.75;18.25;;;;;;;;5056867;28;45363;-83
2022/02/13 10:22:55;;;;;;;;;25.25;22.75;;;;;;;;5066729;28;45265;-84
2022/02/13 10:25:21;;;;;;;;;20.25;20.25;;;;;;;;5067183;28;45427;-84
2022/02/13 10:27:49;;;;;;;;;25.50;22.25;;;;;;;;5059111;28;46095;-84
2022/02/13 10:30:32;;;;;;;;;23.00;19.25;;;;;;;;5056152;28;45477;-83
2022/02/13 10:33:12;;;;;;;;;24.50;18.75;;;;;;;;5057039;28;45445;-84
2022/02/13 10:35:38;;;;;;;;;27.00;25.00;;;;;;;;5056209;28;45611;-84
2022/02/13 10:38:03;;;;;;;;;23.25;18.25;;;;;;;;5056623;28;46205;-84
2022/02/13 10:40:36;;;;;;;;;19.00;17.50;;;;;;;;5038741;28;45361;-85
2022/02/13 10:43:05;;;;;;;;;21.50;19.50;;;;;;;;5046105;28;45221;-84
2022/02/13 10:45:31;;;;;;;;;24.00;21.50;;;;;;;;5039642;28;45442;-82
2022/02/13 10:47:59;;;;;;;;;20.50;18.50;;;;;;;;5049860;28;45410;-82
2022/02/13 10:50:24;;;;;;;;;23.75;22.00;;;;;;;;5044401;28;45206;-85
2022/02/13 10:52:50;;;;;;;;;21.75;20.25;;;;;;;;5042273;28;45234;-84
2022/02/13 10:55:16;;;;;;;;;21.75;20.25;;;;;;;;5038261;28;45422;-84
2022/02/13 10:57:42;;;;;;;;;24.00;21.75;;;;;;;;5038902;28;46176;-83
2022/02/13 11:00:09;;;;;;;;;22.50;21.00;;;;;;;;5042515;28;45538;-83
2022/02/13 11:02:34;;;;;;;;;22.50;20.00;;;;;;;;5038774;28;45357;-85
2022/02/13 11:05:02;;;;;;;;;22.75;22.75;;;;;;;;5038396;28;45389;-84
2022/02/13 11:07:27;;;;;;;;;21.50;17.75;;;;;;;;5036497;28;45482;-85
2022/02/13 11:09:53;;;;;;;;;26.75;23.25;;;;;;;;5036991;28;45385;-85
2022/02/13 11:12:18;;;;;;;;;19.25;13.00;;;;;;;;5038021;28;45269;-84
2022/02/13 11:14:47;;;;;;;;;22.00;18.00;;;;;;;;5038853;28;45300;-85
2022/02/13 11:17:25;;;;;;;;;21.75;21.25;;;;;;;;5040200;28;46003;-85
2022/02/13 11:19:51;;;;;;;;;23.50;22.25;;;;;;;;5026949;28;45484;-86
2022/02/13 11:22:16;;;;;;;;;21.00;21.00;;;;;;;;5039146;28;45391;-83
2022/02/13 11:24:47;;;;;;;;;18.75;18.75;;;;;;;;5041972;28;45389;-83
2022/02/13 11:27:16;;;;;;;;;18.00;16.00;;;;;;;;5040988;28;46527;-81
2022/02/13 11:29:53;;;;;;;;;22.00;18.75;;;;;;;;5040643;28;45256;-84
2022/02/13 11:32:35;;;;;;;;;23.75;22.25;;;;;;;;5040787;28;45272;-86
2022/02/13 11:35:01;;;;;;;;;23.25;21.75;;;;;;;;5042114;28;45335;-86
2022/02/13 11:37:39;;;;;;;;;18.50;15.50;;;;;;;;5040056;28;46031;-86
2022/02/13 11:40:04;;;;;;;;;16.75;14.00;;;;;;;;5055723;28;45324;-85
2022/02/13 11:42:35;;;;;;;;;17.50;15.75;;;;;;;;5061567;28;45653;-84
2022/02/13 11:45:16;;;;;;;;;19.75;18.25;;;;;;;;5061060;28;45465;-86
2022/02/13 11:47:41;;;;;;;;;10.50;10.50;;;;;;;;5076294;27;45354;-88
2022/02/13 11:50:11;;;;;;;;;20.00;17.25;;;;;;;;5085023;28;45571;-87
2022/02/13 11:52:38;;;;;;;;;17.25;15.50;;;;;;;;5071910;28;45292;-88
2022/02/13 11:55:04;;;;;;;;;17.75;17.00;;;;;;;;5066875;28;45382;-88
2022/02/13 11:57:32;;;;;;;;;14.25;12.50;;;;;;;;5069359;27;46578;-87
2022/02/13 11:59:58;;;;;;;;;19.50;19.50;;;;;;;;5067137;27;45254;-85
2022/02/13 12:02:35;;;;;;;;;20.00;16.75;;;;;;;;5064826;28;45430;-86
2022/02/13 12:05:06;;;;;;;;;18.25;17.00;;;;;;;;5067859;27;45332;-86
2022/02/13 12:07:43;;;;;;;;;15.75;14.50;;;;;;;;5062966;28;46946;-84
2022/02/13 12:10:09;;;;;;;;;17.50;13.75;;;;;;;;5061444;28;45418;-86
2022/02/13 12:12:35;;;;;;;;;19.50;15.00;;;;;;;;5047885;28;45554;-87
2022/02/13 12:15:00;;;;;;;;;3.50;3.25;;;;;;;;5055241;28;44872;-86
2022/02/13 12:17:25;;;;;;;;;24.00;22.25;;;;;;;;5050367;28;46874;-87
2022/02/13 12:20:01;;;;;;;;;12.75;9.00;;;;;;;;5068917;28;45377;-87
2022/02/13 12:22:27;;;;;;;;;12.25;9.25;;;;;;;;5060310;28;45335;-88
2022/02/13 12:24:52;;;;;;;;;12.00;11.00;;;;;;;;5060947;28;45368;-86
2022/02/13 12:27:21;;;;;;;;;17.00;16.00;;;;;;;;5057616;28;45289;-88
2022/02/13 12:30:00;;;;;;;;;18.25;13.50;;;;;;;;5059826;28;45523;-85
2022/02/13 12:32:26;;;;;;;;;17.50;16.75;;;;;;;;5058282;28;45383;-85
2022/02/13 12:34:51;;;;;;;;;18.25;13.25;;;;;;;;5060814;28;45435;-85
2022/02/13 12:37:17;;;;;;;;;18.75;17.00;;;;;;;;5057673;28;45417;-84
2022/02/13 12:39:49;;;;;;;;;16.00;14.00;;;;;;;;5041267;28;45449;-84
2022/02/13 12:42:35;;;;;;;;;17.75;12.50;;;;;;;;5042884;28;45417;-86
2022/02/13 12:45:02;;;;;;;;;16.00;14.00;;;;;;;;5065938;27;45438;-85
2022/02/13 12:47:29;;;;;;;;;17.50;17.50;;;;;;;;5058198;28;46333;-86
2022/02/13 12:49:55;;;;;;;;;16.75;14.75;;;;;;;;5060394;28;45255;-87
2022/02/13 12:52:21;;;;;;;;;22.75;20.25;;;;;;;;5057973;28;45276;-85
2022/02/13 12:54:46;;;;;;;;;18.50;14.25;;;;;;;;5058986;28;45312;-85
2022/02/13 12:57:15;;;;;;;;;11.25;11.00;;;;;;;;5059032;28;45409;-86
2022/02/13 12:59:41;;;;;;;;;14.75;12.00;;;;;;;;5058903;28;45358;-85
2022/02/13 13:02:20;;;;;;;;;10.50;6.75;;;;;;;;5062369;27;45409;-86
2022/02/13 13:04:45;;;;;;;;;14.25;14.25;;;;;;;;5047269;28;45312;-85
2022/02/13 13:07:17;;;;;;;;;12.00;12.00;;;;;;;;5061668;28;45345;-85
2022/02/13 13:09:43;;;;;;;;;12.00;10.25;;;;;;;;5060153;28;45280;-85
2022/02/13 13:12:15;;;;;;;;;16.50;15.25;;;;;;;;5058926;28;45365;-85
2022/02/13 13:14:41;;;;;;;;;11.50;10.00;;;;;;;;5059712;27;45559;-84
2022/02/13 13:17:07;;;;;;;;;11.50;11.50;;;;;;;;5059480;28;45905;-83
2022/02/13 13:19:33;;;;;;;;;16.25;12.75;;;;;;;;5057028;28;45287;-84
2022/02/13 13:21:58;;;;;;;;;15.75;12.00;;;;;;;;5058314;28;45376;-83
2022/02/13 13:24:26;;;;;;;;;13.75;13.75;;;;;;;;5056754;28;45284;-84
2022/02/13 13:26:58;;;;;;;;;12.00;12.00;;;;;;;;5058989;27;46282;-82
2022/02/13 13:29:34;;;;;;;;;21.75;13.75;;;;;;;;5039489;28;45249;-82
2022/02/13 13:32:05;;;;;;;;;15.00;13.25;;;;;;;;5056934;28;45189;-82
2022/02/13 13:34:32;;;;;;;;;10.75;10.25;;;;;;;;5055926;28;45435;-82
2022/02/13 13:36:57;;;;;;;;;8.25;5.75;;;;;;;;5062281;28;46914;-81
2022/02/13 13:39:27;;;;;;;;;11.50;10.00;;;;;;;;5055391;28;45413;-81
2022/02/13 13:41:52;;;;;;;;;12.00;12.00;;;;;;;;5056788;27;45513;-79
2022/02/13 13:44:19;;;;;;;;;13.00;11.50;;;;;;;;5056373;28;45400;-80
2022/02/13 13:46:45;;;;;;;;;14.75;11.75;;;;;;;;5056534;28;46159;-81
2022/02/13 13:49:10;;;;;;;;;13.50;13.50;;;;;;;;5055438;28;45584;-81
2022/02/13 13:51:35;;;;;;;;;13.50;10.75;;;;;;;;5056746;28;45555;-81
2022/02/13 13:54:01;;;;;;;;;15.50;10.50;;;;;;;;5055990;27;45324;-81
2022/02/13 13:56:26;;;;;;;;;18.75;13.00;;;;;;;;5057995;28;45991;-80
2022/02/13 13:58:51;;;;;;;;;15.25;14.25;;;;;;;;5057577;28;45518;-83
2022/02/13 14:01:16;;;;;;;;;21.75;18.00;;;;;;;;5055361;28;45336;-82
2022/02/13 14:03:41;;;;;;;;;11.50;10.25;;;;;;;;5058671;28;45284;-82
2022/02/13 14:06:06;;;;;;;;;13.00;13.00;;;;;;;;5066934;27;46116;-82
2022/02/13 14:08:32;;;;;;;;;14.25;12.75;;;;;;;;5065508;28;45331;-83
2022/02/13 14:10:57;;;;;;;;;16.75;16.00;;;;;;;;5056465;28;45437;-83
2022/02/13 14:13:25;;;;;;;;;9.50;7.50;;;;;;;;5056457;28;45509;-82